sensor_id;sensor_type;location;lat;lon;timestamp;P1;durP1;ratioP1;P2;durP2;ratioP2
72674;SDS011;60752;53.962;9.614;2023-02-23T00:02:52;18.67;;;7.28;;
72674;SDS011;60752;53.962;9.614;2023-02-23T00:08:14;19.30;;;8.10;;
72674;SDS011;60752;53.962;9.614;2023-02-23T00:13:35;22.73;;;8.30;;
72674;SDS011;60752;53.962;9.614;2023-02-23T00:18:57;21.13;;;8.10;;
72674;SDS011;60752;53.962;9.614;2023-02-23T00:24:18;19.57;;;7.80;;
72674;SDS011;60752;53.962;9.614;2023-02-23T00:29:39;21.50;;;8.05;;
72674;SDS011;60752;53.962;9.614;2023-02-23T00:35:01;17.63;;;7.57;;
72674;SDS011;60752;53.962;9.614;2023-02-23T00:40:22;18.53;;;8.03;;
72674;SDS011;60752;53.962;9.614;2023-02-23T00:45:43;19.80;;;7.63;;
72674;SDS011;60752;53.962;9.614;2023-02-23T00:51:05;20.75;;;8.93;;
72674;SDS011;60752;53.962;9.614;2023-02-23T00:56:26;24.40;;;8.32;;
72674;SDS011;60752;53.962;9.614;2023-02-23T01:01:47;25.43;;;8.47;;
72674;SDS011;60752;53.962;9.614;2023-02-23T01:07:09;23.80;;;9.48;;
72674;SDS011;60752;53.962;9.614;2023-02-23T01:12:30;20.35;;;8.18;;
72674;SDS011;60752;53.962;9.614;2023-02-23T01:17:51;27.03;;;10.03;;
72674;SDS011;60752;53.962;9.614;2023-02-23T01:23:13;23.70;;;9.23;;
72674;SDS011;60752;53.962;9.614;2023-02-23T01:28:34;21.77;;;8.90;;
72674;SDS011;60752;53.962;9.614;2023-02-23T01:33:55;25.10;;;9.33;;
72674;SDS011;60752;53.962;9.614;2023-02-23T01:39:19;22.77;;;9.73;;
72674;SDS011;60752;53.962;9.614;2023-02-23T01:50:38;23.42;;;8.90;;
72674;SDS011;60752;53.962;9.614;2023-02-23T01:56:06;25.63;;;9.00;;
72674;SDS011;60752;53.962;9.614;2023-02-23T02:01:29;23.65;;;9.55;;
72674;SDS011;60752;53.962;9.614;2023-02-23T02:06:50;21.70;;;8.85;;
72674;SDS011;60752;53.962;9.614;2023-02-23T02:12:13;21.27;;;8.83;;
72674;SDS011;60752;53.962;9.614;2023-02-23T02:17:35;22.70;;;8.88;;
72674;SDS011;60752;53.962;9.614;2023-02-23T02:29:18;28.23;;;10.33;;
72674;SDS011;60752;53.962;9.614;2023-02-23T02:35:07;24.70;;;9.80;;
72674;SDS011;60752;53.962;9.614;2023-02-23T02:40:46;24.92;;;9.32;;
72674;SDS011;60752;53.962;9.614;2023-02-23T02:46:13;21.05;;;9.73;;
72674;SDS011;60752;53.962;9.614;2023-02-23T02:51:39;24.83;;;9.70;;
72674;SDS011;60752;53.962;9.614;2023-02-23T02:57:08;29.88;;;10.30;;
72674;SDS011;60752;53.962;9.614;2023-02-23T03:02:30;28.17;;;10.23;;
72674;SDS011;60752;53.962;9.614;2023-02-23T03:07:55;23.37;;;9.70;;
72674;SDS011;60752;53.962;9.614;2023-02-23T03:13:30;24.08;;;9.88;;
72674;SDS011;60752;53.962;9.614;2023-02-23T03:19:06;20.27;;;9.20;;
72674;SDS011;60752;53.962;9.614;2023-02-23T03:24:35;21.73;;;9.27;;
72674;SDS011;60752;53.962;9.614;2023-02-23T03:30:04;23.87;;;9.03;;
72674;SDS011;60752;53.962;9.614;2023-02-23T03:35:37;28.30;;;10.93;;
72674;SDS011;60752;53.962;9.614;2023-02-23T03:41:05;31.90;;;10.07;;
72674;SDS011;60752;53.962;9.614;2023-02-23T03:46:29;23.00;;;9.20;;
72674;SDS011;60752;53.962;9.614;2023-02-23T03:51:52;28.77;;;12.10;;
72674;SDS011;60752;53.962;9.614;2023-02-23T03:57:17;29.02;;;9.90;;
72674;SDS011;60752;53.962;9.614;2023-02-23T04:02:43;22.47;;;9.73;;
72674;SDS011;60752;53.962;9.614;2023-02-23T04:08:06;22.80;;;9.70;;
72674;SDS011;60752;53.962;9.614;2023-02-23T04:13:30;24.27;;;10.48;;
72674;SDS011;60752;53.962;9.614;2023-02-23T04:18:55;27.40;;;11.07;;
72674;SDS011;60752;53.962;9.614;2023-02-23T04:24:15;31.37;;;11.40;;
72674;SDS011;60752;53.962;9.614;2023-02-23T04:29:36;31.15;;;11.50;;
72674;SDS011;60752;53.962;9.614;2023-02-23T04:34:58;31.42;;;12.23;;
72674;SDS011;60752;53.962;9.614;2023-02-23T04:40:19;31.63;;;12.53;;
72674;SDS011;60752;53.962;9.614;2023-02-23T04:45:40;36.50;;;12.05;;
72674;SDS011;60752;53.962;9.614;2023-02-23T04:51:02;37.60;;;12.82;;
72674;SDS011;60752;53.962;9.614;2023-02-23T04:56:23;36.57;;;13.63;;
72674;SDS011;60752;53.962;9.614;2023-02-23T05:01:44;40.72;;;13.38;;
72674;SDS011;60752;53.962;9.614;2023-02-23T05:07:06;41.88;;;14.35;;
72674;SDS011;60752;53.962;9.614;2023-02-23T05:12:27;48.23;;;14.80;;
72674;SDS011;60752;53.962;9.614;2023-02-23T05:17:48;54.63;;;15.17;;
72674;SDS011;60752;53.962;9.614;2023-02-23T05:23:10;51.47;;;14.35;;
72674;SDS011;60752;53.962;9.614;2023-02-23T05:28:31;51.70;;;15.07;;
72674;SDS011;60752;53.962;9.614;2023-02-23T05:33:52;52.50;;;15.90;;
72674;SDS011;60752;53.962;9.614;2023-02-23T05:39:14;52.92;;;15.32;;
72674;SDS011;60752;53.962;9.614;2023-02-23T05:44:35;43.95;;;14.63;;
72674;SDS011;60752;53.962;9.614;2023-02-23T05:49:58;51.73;;;16.27;;
72674;SDS011;60752;53.962;9.614;2023-02-23T05:55:20;52.38;;;16.08;;
72674;SDS011;60752;53.962;9.614;2023-02-23T06:00:41;58.63;;;17.13;;
72674;SDS011;60752;53.962;9.614;2023-02-23T06:06:02;52.37;;;16.87;;
72674;SDS011;60752;53.962;9.614;2023-02-23T06:11:24;52.17;;;15.93;;
72674;SDS011;60752;53.962;9.614;2023-02-23T06:16:45;59.70;;;16.95;;
72674;SDS011;60752;53.962;9.614;2023-02-23T06:22:05;58.17;;;17.92;;
72674;SDS011;60752;53.962;9.614;2023-02-23T06:27:27;60.33;;;17.77;;
72674;SDS011;60752;53.962;9.614;2023-02-23T06:32:48;57.13;;;17.20;;
72674;SDS011;60752;53.962;9.614;2023-02-23T06:38:09;53.20;;;16.65;;
72674;SDS011;60752;53.962;9.614;2023-02-23T06:43:31;61.57;;;16.13;;
72674;SDS011;60752;53.962;9.614;2023-02-23T06:48:53;49.72;;;15.60;;
72674;SDS011;60752;53.962;9.614;2023-02-23T06:54:14;56.22;;;16.77;;
72674;SDS011;60752;53.962;9.614;2023-02-23T06:59:36;45.10;;;14.70;;
72674;SDS011;60752;53.962;9.614;2023-02-23T07:04:57;50.43;;;15.20;;
72674;SDS011;60752;53.962;9.614;2023-02-23T07:10:18;46.03;;;14.75;;
72674;SDS011;60752;53.962;9.614;2023-02-23T07:15:40;57.08;;;15.18;;
72674;SDS011;60752;53.962;9.614;2023-02-23T07:21:01;52.77;;;14.90;;
72674;SDS011;60752;53.962;9.614;2023-02-23T07:26:22;53.25;;;16.63;;
72674;SDS011;60752;53.962;9.614;2023-02-23T07:31:44;62.40;;;17.30;;
72674;SDS011;60752;53.962;9.614;2023-02-23T07:37:05;59.27;;;18.10;;
72674;SDS011;60752;53.962;9.614;2023-02-23T07:42:25;65.35;;;20.42;;
72674;SDS011;60752;53.962;9.614;2023-02-23T07:47:47;59.75;;;20.98;;
72674;SDS011;60752;53.962;9.614;2023-02-23T07:53:08;71.00;;;22.20;;
72674;SDS011;60752;53.962;9.614;2023-02-23T07:58:29;83.70;;;23.90;;
72674;SDS011;60752;53.962;9.614;2023-02-23T08:03:51;84.15;;;22.80;;
72674;SDS011;60752;53.962;9.614;2023-02-23T08:09:12;95.15;;;25.90;;
72674;SDS011;60752;53.962;9.614;2023-02-23T08:14:13;89.93;;;20.83;;
72674;SDS011;60752;53.962;9.614;2023-02-23T08:19:15;97.27;;;24.20;;
72674;SDS011;60752;53.962;9.614;2023-02-23T08:24:36;86.50;;;21.63;;
72674;SDS011;60752;53.962;9.614;2023-02-23T08:29:56;78.38;;;22.35;;
72674;SDS011;60752;53.962;9.614;2023-02-23T08:35:19;80.53;;;22.70;;
72674;SDS011;60752;53.962;9.614;2023-02-23T08:40:39;73.13;;;20.37;;
72674;SDS011;60752;53.962;9.614;2023-02-23T08:46:00;69.75;;;20.13;;
72674;SDS011;60752;53.962;9.614;2023-02-23T08:51:22;65.22;;;19.88;;
72674;SDS011;60752;53.962;9.614;2023-02-23T08:56:43;74.30;;;20.20;;
72674;SDS011;60752;53.962;9.614;2023-02-23T09:02:04;68.22;;;20.38;;
72674;SDS011;60752;53.962;9.614;2023-02-23T09:07:27;65.43;;;19.98;;
72674;SDS011;60752;53.962;9.614;2023-02-23T09:12:48;67.93;;;18.40;;
72674;SDS011;60752;53.962;9.614;2023-02-23T09:18:09;68.03;;;19.55;;
72674;SDS011;60752;53.962;9.614;2023-02-23T09:23:33;61.38;;;19.08;;
72674;SDS011;60752;53.962;9.614;2023-02-23T09:28:55;59.13;;;17.67;;
72674;SDS011;60752;53.962;9.614;2023-02-23T09:34:17;59.67;;;18.20;;
72674;SDS011;60752;53.962;9.614;2023-02-23T09:39:40;62.63;;;18.65;;
72674;SDS011;60752;53.962;9.614;2023-02-23T09:45:18;58.95;;;17.35;;
72674;SDS011;60752;53.962;9.614;2023-02-23T09:50:49;59.27;;;16.67;;
72674;SDS011;60752;53.962;9.614;2023-02-23T09:56:17;52.17;;;15.68;;
72674;SDS011;60752;53.962;9.614;2023-02-23T10:01:55;53.45;;;15.50;;
72674;SDS011;60752;53.962;9.614;2023-02-23T10:07:20;54.10;;;15.63;;
72674;SDS011;60752;53.962;9.614;2023-02-23T10:12:48;59.05;;;16.33;;
72674;SDS011;60752;53.962;9.614;2023-02-23T10:18:16;56.60;;;16.58;;
72674;SDS011;60752;53.962;9.614;2023-02-23T10:23:50;55.20;;;16.33;;
72674;SDS011;60752;53.962;9.614;2023-02-23T10:29:19;50.53;;;15.23;;
72674;SDS011;60752;53.962;9.614;2023-02-23T10:34:45;48.60;;;15.80;;
72674;SDS011;60752;53.962;9.614;2023-02-23T10:40:12;55.58;;;14.90;;
72674;SDS011;60752;53.962;9.614;2023-02-23T10:45:38;54.87;;;16.37;;
72674;SDS011;60752;53.962;9.614;2023-02-23T10:51:04;56.80;;;14.85;;
72674;SDS011;60752;53.962;9.614;2023-02-23T10:56:32;51.10;;;14.95;;
72674;SDS011;60752;53.962;9.614;2023-02-23T11:02:15;52.37;;;15.07;;
72674;SDS011;60752;53.962;9.614;2023-02-23T11:07:42;53.63;;;14.60;;
72674;SDS011;60752;53.962;9.614;2023-02-23T11:13:03;53.42;;;15.60;;
72674;SDS011;60752;53.962;9.614;2023-02-23T11:18:25;53.90;;;15.17;;
72674;SDS011;60752;53.962;9.614;2023-02-23T11:23:47;53.53;;;15.83;;
72674;SDS011;60752;53.962;9.614;2023-02-23T11:29:11;56.42;;;15.57;;
72674;SDS011;60752;53.962;9.614;2023-02-23T11:34:37;59.65;;;16.50;;
72674;SDS011;60752;53.962;9.614;2023-02-23T11:39:58;50.37;;;14.40;;
72674;SDS011;60752;53.962;9.614;2023-02-23T11:45:22;56.83;;;15.40;;
72674;SDS011;60752;53.962;9.614;2023-02-23T11:50:46;53.65;;;15.73;;
72674;SDS011;60752;53.962;9.614;2023-02-23T11:56:08;43.07;;;14.57;;
72674;SDS011;60752;53.962;9.614;2023-02-23T12:01:37;47.55;;;15.27;;
72674;SDS011;60752;53.962;9.614;2023-02-23T12:13:02;42.97;;;12.00;;
72674;SDS011;60752;53.962;9.614;2023-02-23T12:24:17;35.75;;;11.57;;
72674;SDS011;60752;53.962;9.614;2023-02-23T12:35:30;38.73;;;10.93;;
72674;SDS011;60752;53.962;9.614;2023-02-23T12:41:00;35.13;;;10.63;;
72674;SDS011;60752;53.962;9.614;2023-02-23T12:46:26;40.83;;;12.38;;
72674;SDS011;60752;53.962;9.614;2023-02-23T12:51:50;41.27;;;12.77;;
72674;SDS011;60752;53.962;9.614;2023-02-23T12:57:18;38.97;;;11.45;;
72674;SDS011;60752;53.962;9.614;2023-02-23T13:02:48;34.38;;;10.55;;
72674;SDS011;60752;53.962;9.614;2023-02-23T13:08:18;34.53;;;10.23;;
72674;SDS011;60752;53.962;9.614;2023-02-23T13:13:48;29.50;;;10.03;;
72674;SDS011;60752;53.962;9.614;2023-02-23T13:19:16;36.33;;;11.05;;
72674;SDS011;60752;53.962;9.614;2023-02-23T13:24:40;38.85;;;9.98;;
72674;SDS011;60752;53.962;9.614;2023-02-23T13:30:09;36.47;;;8.83;;
72674;SDS011;60752;53.962;9.614;2023-02-23T13:35:32;34.53;;;8.68;;
72674;SDS011;60752;53.962;9.614;2023-02-23T13:40:57;25.83;;;7.88;;
72674;SDS011;60752;53.962;9.614;2023-02-23T13:46:27;26.77;;;8.00;;
72674;SDS011;60752;53.962;9.614;2023-02-23T13:52:00;30.08;;;8.07;;
72674;SDS011;60752;53.962;9.614;2023-02-23T13:57:28;31.25;;;9.75;;
72674;SDS011;60752;53.962;9.614;2023-02-23T14:02:52;29.17;;;9.10;;
72674;SDS011;60752;53.962;9.614;2023-02-23T14:08:19;26.73;;;8.40;;
72674;SDS011;60752;53.962;9.614;2023-02-23T14:13:59;29.60;;;8.32;;
72674;SDS011;60752;53.962;9.614;2023-02-23T14:19:33;29.80;;;7.78;;
72674;SDS011;60752;53.962;9.614;2023-02-23T14:30:58;28.52;;;7.65;;
72674;SDS011;60752;53.962;9.614;2023-02-23T14:42:13;24.63;;;7.37;;
72674;SDS011;60752;53.962;9.614;2023-02-23T14:47:41;26.08;;;7.80;;
72674;SDS011;60752;53.962;9.614;2023-02-23T14:53:09;22.85;;;7.88;;
72674;SDS011;60752;53.962;9.614;2023-02-23T14:58:37;16.20;;;5.63;;
72674;SDS011;60752;53.962;9.614;2023-02-23T15:04:04;19.37;;;4.47;;
72674;SDS011;60752;53.962;9.614;2023-02-23T15:09:34;21.05;;;4.10;;
72674;SDS011;60752;53.962;9.614;2023-02-23T15:14:58;15.60;;;3.35;;
72674;SDS011;60752;53.962;9.614;2023-02-23T15:20:22;17.23;;;2.73;;
72674;SDS011;60752;53.962;9.614;2023-02-23T15:25:48;14.95;;;2.22;;
72674;SDS011;60752;53.962;9.614;2023-02-23T15:31:09;13.70;;;2.38;;
72674;SDS011;60752;53.962;9.614;2023-02-23T15:36:30;16.70;;;2.63;;
72674;SDS011;60752;53.962;9.614;2023-02-23T15:41:55;11.73;;;2.50;;
72674;SDS011;60752;53.962;9.614;2023-02-23T15:47:17;11.50;;;2.17;;
72674;SDS011;60752;53.962;9.614;2023-02-23T15:52:43;12.73;;;2.20;;
72674;SDS011;60752;53.962;9.614;2023-02-23T15:58:12;16.93;;;2.40;;
72674;SDS011;60752;53.962;9.614;2023-02-23T16:03:40;13.13;;;2.28;;
72674;SDS011;60752;53.962;9.614;2023-02-23T16:09:14;13.88;;;2.45;;
72674;SDS011;60752;53.962;9.614;2023-02-23T16:14:47;11.60;;;2.00;;
72674;SDS011;60752;53.962;9.614;2023-02-23T16:20:12;10.77;;;2.00;;
72674;SDS011;60752;53.962;9.614;2023-02-23T16:25:36;11.43;;;2.30;;
72674;SDS011;60752;53.962;9.614;2023-02-23T16:31:03;14.37;;;2.37;;
72674;SDS011;60752;53.962;9.614;2023-02-23T16:36:32;11.68;;;1.80;;
72674;SDS011;60752;53.962;9.614;2023-02-23T16:41:54;18.58;;;2.38;;
72674;SDS011;60752;53.962;9.614;2023-02-23T16:47:32;12.47;;;1.90;;
72674;SDS011;60752;53.962;9.614;2023-02-23T16:52:54;11.07;;;1.80;;
72674;SDS011;60752;53.962;9.614;2023-02-23T16:58:16;7.38;;;1.77;;
72674;SDS011;60752;53.962;9.614;2023-02-23T17:03:40;16.45;;;1.98;;
72674;SDS011;60752;53.962;9.614;2023-02-23T17:09:01;16.23;;;2.50;;
72674;SDS011;60752;53.962;9.614;2023-02-23T17:14:23;8.73;;;1.83;;
72674;SDS011;60752;53.962;9.614;2023-02-23T17:19:47;13.20;;;2.20;;
72674;SDS011;60752;53.962;9.614;2023-02-23T17:25:07;10.03;;;2.50;;
72674;SDS011;60752;53.962;9.614;2023-02-23T17:30:29;6.28;;;1.90;;
72674;SDS011;60752;53.962;9.614;2023-02-23T17:35:52;11.82;;;1.65;;
72674;SDS011;60752;53.962;9.614;2023-02-23T17:41:14;13.87;;;2.03;;
72674;SDS011;60752;53.962;9.614;2023-02-23T17:46:36;10.57;;;2.10;;
72674;SDS011;60752;53.962;9.614;2023-02-23T17:51:58;10.02;;;2.28;;
72674;SDS011;60752;53.962;9.614;2023-02-23T17:57:19;11.43;;;1.67;;
72674;SDS011;60752;53.962;9.614;2023-02-23T18:02:40;10.00;;;1.70;;
72674;SDS011;60752;53.962;9.614;2023-02-23T18:08:04;11.88;;;1.95;;
72674;SDS011;60752;53.962;9.614;2023-02-23T18:13:25;9.23;;;2.00;;
72674;SDS011;60752;53.962;9.614;2023-02-23T18:18:47;4.33;;;1.07;;
72674;SDS011;60752;53.962;9.614;2023-02-23T18:24:09;12.52;;;1.70;;
72674;SDS011;60752;53.962;9.614;2023-02-23T18:29:31;7.25;;;1.52;;
72674;SDS011;60752;53.962;9.614;2023-02-23T18:34:54;8.00;;;1.73;;
72674;SDS011;60752;53.962;9.614;2023-02-23T18:40:16;9.47;;;1.57;;
72674;SDS011;60752;53.962;9.614;2023-02-23T18:45:39;14.07;;;1.70;;
72674;SDS011;60752;53.962;9.614;2023-02-23T18:51:00;12.65;;;1.70;;
72674;SDS011;60752;53.962;9.614;2023-02-23T18:56:23;20.03;;;2.33;;
72674;SDS011;60752;53.962;9.614;2023-02-23T19:01:45;8.55;;;3.72;;
72674;SDS011;60752;53.962;9.614;2023-02-23T19:07:06;9.18;;;1.98;;
72674;SDS011;60752;53.962;9.614;2023-02-23T19:12:28;12.70;;;1.57;;
72674;SDS011;60752;53.962;9.614;2023-02-23T19:17:49;11.10;;;2.00;;
72674;SDS011;60752;53.962;9.614;2023-02-23T19:23:10;9.02;;;1.90;;
72674;SDS011;60752;53.962;9.614;2023-02-23T19:28:32;6.53;;;1.40;;
72674;SDS011;60752;53.962;9.614;2023-02-23T19:33:54;9.47;;;1.17;;
72674;SDS011;60752;53.962;9.614;2023-02-23T19:39:16;5.63;;;1.20;;
72674;SDS011;60752;53.962;9.614;2023-02-23T19:44:38;7.10;;;1.50;;
72674;SDS011;60752;53.962;9.614;2023-02-23T19:49:58;7.80;;;1.80;;
72674;SDS011;60752;53.962;9.614;2023-02-23T19:55:19;8.95;;;1.85;;
72674;SDS011;60752;53.962;9.614;2023-02-23T20:00:41;9.95;;;1.92;;
72674;SDS011;60752;53.962;9.614;2023-02-23T20:06:02;5.47;;;1.63;;
72674;SDS011;60752;53.962;9.614;2023-02-23T20:11:24;3.80;;;1.10;;
72674;SDS011;60752;53.962;9.614;2023-02-23T20:16:47;7.32;;;1.30;;
72674;SDS011;60752;53.962;9.614;2023-02-23T20:22:08;5.37;;;1.03;;
72674;SDS011;60752;53.962;9.614;2023-02-23T20:27:28;7.03;;;1.50;;
72674;SDS011;60752;53.962;9.614;2023-02-23T20:32:50;8.18;;;1.92;;
72674;SDS011;60752;53.962;9.614;2023-02-23T20:38:11;12.45;;;1.33;;
72674;SDS011;60752;53.962;9.614;2023-02-23T20:43:32;6.17;;;1.13;;
72674;SDS011;60752;53.962;9.614;2023-02-23T20:48:55;11.20;;;1.70;;
72674;SDS011;60752;53.962;9.614;2023-02-23T20:54:16;7.18;;;0.90;;
72674;SDS011;60752;53.962;9.614;2023-02-23T20:59:36;7.83;;;0.90;;
72674;SDS011;60752;53.962;9.614;2023-02-23T21:04:58;5.50;;;0.68;;
72674;SDS011;60752;53.962;9.614;2023-02-23T21:10:19;12.50;;;2.00;;
72674;SDS011;60752;53.962;9.614;2023-02-23T21:15:40;6.90;;;1.10;;
72674;SDS011;60752;53.962;9.614;2023-02-23T21:21:03;13.07;;;1.60;;
72674;SDS011;60752;53.962;9.614;2023-02-23T21:26:24;6.60;;;1.88;;
72674;SDS011;60752;53.962;9.614;2023-02-23T21:31:45;8.13;;;1.80;;
72674;SDS011;60752;53.962;9.614;2023-02-23T21:37:07;8.27;;;1.53;;
72674;SDS011;60752;53.962;9.614;2023-02-23T21:42:28;7.00;;;1.40;;
72674;SDS011;60752;53.962;9.614;2023-02-23T21:47:49;7.78;;;1.45;;
72674;SDS011;60752;53.962;9.614;2023-02-23T21:53:11;3.63;;;1.13;;
72674;SDS011;60752;53.962;9.614;2023-02-23T21:58:31;4.10;;;1.08;;
72674;SDS011;60752;53.962;9.614;2023-02-23T22:03:52;4.63;;;0.90;;
72674;SDS011;60752;53.962;9.614;2023-02-23T22:09:15;7.97;;;1.37;;
72674;SDS011;60752;53.962;9.614;2023-02-23T22:14:35;6.80;;;1.00;;
72674;SDS011;60752;53.962;9.614;2023-02-23T22:19:56;6.65;;;1.50;;
72674;SDS011;60752;53.962;9.614;2023-02-23T22:25:18;4.43;;;1.33;;
72674;SDS011;60752;53.962;9.614;2023-02-23T22:30:40;8.63;;;1.07;;
72674;SDS011;60752;53.962;9.614;2023-02-23T22:36:01;6.90;;;0.80;;
72674;SDS011;60752;53.962;9.614;2023-02-23T22:41:24;4.22;;;1.00;;
72674;SDS011;60752;53.962;9.614;2023-02-23T22:46:45;7.90;;;1.10;;
72674;SDS011;60752;53.962;9.614;2023-02-23T22:52:07;2.38;;;0.70;;
72674;SDS011;60752;53.962;9.614;2023-02-23T22:57:29;3.35;;;0.95;;
72674;SDS011;60752;53.962;9.614;2023-02-23T23:02:50;5.00;;;0.90;;
72674;SDS011;60752;53.962;9.614;2023-02-23T23:08:10;4.37;;;0.83;;
72674;SDS011;60752;53.962;9.614;2023-02-23T23:13:32;7.40;;;1.08;;
72674;SDS011;60752;53.962;9.614;2023-02-23T23:18:54;4.13;;;0.80;;
72674;SDS011;60752;53.962;9.614;2023-02-23T23:24:16;3.10;;;0.70;;
72674;SDS011;60752;53.962;9.614;2023-02-23T23:29:38;3.67;;;0.80;;
72674;SDS011;60752;53.962;9.614;2023-02-23T23:35:00;4.57;;;0.90;;
72674;SDS011;60752;53.962;9.614;2023-02-23T23:40:20;5.50;;;1.10;;
72674;SDS011;60752;53.962;9.614;2023-02-23T23:45:42;7.40;;;1.00;;
72674;SDS011;60752;53.962;9.614;2023-02-23T23:51:03;3.92;;;0.80;;
72674;SDS011;60752;53.962;9.614;2023-02-23T23:56:24;2.10;;;0.70;;
